sensor_id;sensor_type;location;lat;lon;timestamp;P1;durP1;ratioP1;P2;durP2;ratioP2
54269;SDS011;40181;51.560;13.000;2022-07-18T00:13:28;3.22;;;0.82;;
54269;SDS011;40181;51.560;13.000;2022-07-18T00:19:52;5.10;;;0.70;;
54269;SDS011;40181;51.560;13.000;2022-07-18T00:36:26;1.95;;;0.80;;
54269;SDS011;40181;51.560;13.000;2022-07-18T00:39:14;1.08;;;0.77;;
54269;SDS011;40181;51.560;13.000;2022-07-18T00:42:11;1.77;;;1.00;;
54269;SDS011;40181;51.560;13.000;2022-07-18T00:51:46;1.75;;;0.70;;
54269;SDS011;40181;51.560;13.000;2022-07-18T00:55:05;0.88;;;0.60;;
54269;SDS011;40181;51.560;13.000;2022-07-18T00:58:35;2.17;;;1.08;;
54269;SDS011;40181;51.560;13.000;2022-07-18T01:08:17;0.77;;;0.68;;
54269;SDS011;40181;51.560;13.000;2022-07-18T01:17:20;2.50;;;1.17;;
54269;SDS011;40181;51.560;13.000;2022-07-18T01:23:47;1.80;;;1.15;;
54269;SDS011;40181;51.560;13.000;2022-07-18T01:27:03;3.78;;;1.73;;
54269;SDS011;40181;51.560;13.000;2022-07-18T01:36:45;1.58;;;0.93;;
54269;SDS011;40181;51.560;13.000;2022-07-18T01:39:42;2.90;;;1.60;;
54269;SDS011;40181;51.560;13.000;2022-07-18T01:42:58;2.53;;;1.10;;
54269;SDS011;40181;51.560;13.000;2022-07-18T01:49:13;2.15;;;0.95;;
54269;SDS011;40181;51.560;13.000;2022-07-18T01:58:24;2.45;;;1.40;;
54269;SDS011;40181;51.560;13.000;2022-07-18T02:01:00;2.35;;;1.08;;
54269;SDS011;40181;51.560;13.000;2022-07-18T02:07:14;1.83;;;0.70;;
54269;SDS011;40181;51.560;13.000;2022-07-18T02:10:27;1.50;;;0.80;;
54269;SDS011;40181;51.560;13.000;2022-07-18T02:17:00;1.77;;;1.08;;
54269;SDS011;40181;51.560;13.000;2022-07-18T02:20:14;2.58;;;1.05;;
54269;SDS011;40181;51.560;13.000;2022-07-18T02:30:50;3.15;;;1.17;;
54269;SDS011;40181;51.560;13.000;2022-07-18T02:36:39;1.88;;;0.90;;
54269;SDS011;40181;51.560;13.000;2022-07-18T02:39:42;1.92;;;0.93;;
54269;SDS011;40181;51.560;13.000;2022-07-18T02:55:49;2.10;;;0.88;;
54269;SDS011;40181;51.560;13.000;2022-07-18T02:59:03;2.40;;;1.00;;
54269;SDS011;40181;51.560;13.000;2022-07-18T03:05:11;2.78;;;0.80;;
54269;SDS011;40181;51.560;13.000;2022-07-18T03:11:43;1.65;;;0.90;;
54269;SDS011;40181;51.560;13.000;2022-07-18T03:18:12;1.48;;;0.90;;
54269;SDS011;40181;51.560;13.000;2022-07-18T03:21:33;2.25;;;0.90;;
54269;SDS011;40181;51.560;13.000;2022-07-18T03:24:26;1.25;;;0.90;;
54269;SDS011;40181;51.560;13.000;2022-07-18T03:33:35;1.58;;;0.90;;
54269;SDS011;40181;51.560;13.000;2022-07-18T03:36:33;1.95;;;0.85;;
54269;SDS011;40181;51.560;13.000;2022-07-18T03:40:41;2.38;;;1.08;;
54269;SDS011;40181;51.560;13.000;2022-07-18T03:42:59;0.88;;;0.70;;
54269;SDS011;40181;51.560;13.000;2022-07-18T03:45:40;1.50;;;0.93;;
54269;SDS011;40181;51.560;13.000;2022-07-18T03:58:02;1.48;;;0.80;;
54269;SDS011;40181;51.560;13.000;2022-07-18T04:07:16;1.55;;;0.77;;
54269;SDS011;40181;51.560;13.000;2022-07-18T04:12:13;1.98;;;0.80;;
54269;SDS011;40181;51.560;13.000;2022-07-18T04:14:41;1.08;;;0.85;;
54269;SDS011;40181;51.560;13.000;2022-07-18T04:17:09;5.70;;;1.13;;
54269;SDS011;40181;51.560;13.000;2022-07-18T04:19:37;4.55;;;1.17;;
54269;SDS011;40181;51.560;13.000;2022-07-18T04:22:05;2.35;;;1.23;;
54269;SDS011;40181;51.560;13.000;2022-07-18T04:24:36;6.30;;;1.05;;
54269;SDS011;40181;51.560;13.000;2022-07-18T04:29:32;0.73;;;0.60;;
54269;SDS011;40181;51.560;13.000;2022-07-18T04:32:02;1.70;;;1.13;;
54269;SDS011;40181;51.560;13.000;2022-07-18T04:34:32;3.28;;;1.30;;
54269;SDS011;40181;51.560;13.000;2022-07-18T04:37:00;3.28;;;1.05;;
54269;SDS011;40181;51.560;13.000;2022-07-18T04:39:28;3.30;;;1.27;;
54269;SDS011;40181;51.560;13.000;2022-07-18T04:41:59;3.88;;;1.42;;
54269;SDS011;40181;51.560;13.000;2022-07-18T04:46:55;2.47;;;1.00;;
54269;SDS011;40181;51.560;13.000;2022-07-18T04:49:24;1.63;;;1.02;;
54269;SDS011;40181;51.560;13.000;2022-07-18T04:51:52;2.92;;;1.00;;
54269;SDS011;40181;51.560;13.000;2022-07-18T04:54:20;1.52;;;1.08;;
54269;SDS011;40181;51.560;13.000;2022-07-18T04:56:48;2.28;;;0.93;;
54269;SDS011;40181;51.560;13.000;2022-07-18T04:59:19;1.80;;;1.17;;
54269;SDS011;40181;51.560;13.000;2022-07-18T05:04:15;1.27;;;0.80;;
54269;SDS011;40181;51.560;13.000;2022-07-18T05:06:43;2.47;;;1.33;;
54269;SDS011;40181;51.560;13.000;2022-07-18T05:09:11;12.75;;;2.22;;
54269;SDS011;40181;51.560;13.000;2022-07-18T05:11:40;1.25;;;0.75;;
54269;SDS011;40181;51.560;13.000;2022-07-18T05:14:08;2.38;;;1.27;;
54269;SDS011;40181;51.560;13.000;2022-07-18T05:16:39;2.80;;;1.58;;
54269;SDS011;40181;51.560;13.000;2022-07-18T05:21:35;1.33;;;0.80;;
54269;SDS011;40181;51.560;13.000;2022-07-18T05:24:03;2.20;;;0.93;;
54269;SDS011;40181;51.560;13.000;2022-07-18T05:26:31;1.40;;;0.93;;
54269;SDS011;40181;51.560;13.000;2022-07-18T05:29:00;1.45;;;0.88;;
54269;SDS011;40181;51.560;13.000;2022-07-18T05:31:29;3.33;;;1.58;;
54269;SDS011;40181;51.560;13.000;2022-07-18T05:34:00;2.30;;;1.20;;
54269;SDS011;40181;51.560;13.000;2022-07-18T05:38:56;2.58;;;1.02;;
54269;SDS011;40181;51.560;13.000;2022-07-18T05:41:24;1.25;;;0.73;;
54269;SDS011;40181;51.560;13.000;2022-07-18T05:43:52;1.25;;;0.80;;
54269;SDS011;40181;51.560;13.000;2022-07-18T05:46:21;7.95;;;1.27;;
54269;SDS011;40181;51.560;13.000;2022-07-18T05:48:49;1.83;;;0.85;;
54269;SDS011;40181;51.560;13.000;2022-07-18T05:51:20;4.07;;;0.95;;
54269;SDS011;40181;51.560;13.000;2022-07-18T05:53:49;1.00;;;0.70;;
54269;SDS011;40181;51.560;13.000;2022-07-18T05:56:17;5.40;;;1.10;;
54269;SDS011;40181;51.560;13.000;2022-07-18T05:58:45;6.45;;;1.63;;
54269;SDS011;40181;51.560;13.000;2022-07-18T06:01:14;4.15;;;2.00;;
54269;SDS011;40181;51.560;13.000;2022-07-18T06:03:45;3.25;;;1.98;;
54269;SDS011;40181;51.560;13.000;2022-07-18T06:06:13;2.42;;;1.52;;
54269;SDS011;40181;51.560;13.000;2022-07-18T06:08:44;3.13;;;1.80;;
54269;SDS011;40181;51.560;13.000;2022-07-18T06:11:12;4.35;;;1.85;;
54269;SDS011;40181;51.560;13.000;2022-07-18T06:13:41;5.03;;;2.78;;
54269;SDS011;40181;51.560;13.000;2022-07-18T06:16:09;2.83;;;1.70;;
54269;SDS011;40181;51.560;13.000;2022-07-18T06:18:38;2.83;;;1.90;;
54269;SDS011;40181;51.560;13.000;2022-07-18T06:21:06;2.25;;;1.55;;
54269;SDS011;40181;51.560;13.000;2022-07-18T06:23:35;5.57;;;1.92;;
54269;SDS011;40181;51.560;13.000;2022-07-18T06:26:06;4.78;;;2.15;;
54269;SDS011;40181;51.560;13.000;2022-07-18T06:31:02;2.40;;;1.50;;
54269;SDS011;40181;51.560;13.000;2022-07-18T06:33:30;3.47;;;2.08;;
54269;SDS011;40181;51.560;13.000;2022-07-18T06:35:58;3.60;;;2.28;;
54269;SDS011;40181;51.560;13.000;2022-07-18T06:38:27;4.55;;;2.25;;
54269;SDS011;40181;51.560;13.000;2022-07-18T06:40:55;9.20;;;2.53;;
54269;SDS011;40181;51.560;13.000;2022-07-18T06:43:26;5.35;;;2.15;;
54269;SDS011;40181;51.560;13.000;2022-07-18T06:48:23;2.50;;;1.85;;
54269;SDS011;40181;51.560;13.000;2022-07-18T06:50:54;2.65;;;1.85;;
54269;SDS011;40181;51.560;13.000;2022-07-18T06:53:22;7.97;;;2.58;;
54269;SDS011;40181;51.560;13.000;2022-07-18T06:55:50;2.80;;;1.88;;
54269;SDS011;40181;51.560;13.000;2022-07-18T06:58:18;3.05;;;2.53;;
54269;SDS011;40181;51.560;13.000;2022-07-18T07:00:49;3.22;;;1.75;;
54269;SDS011;40181;51.560;13.000;2022-07-18T07:03:17;3.25;;;1.58;;
54269;SDS011;40181;51.560;13.000;2022-07-18T07:05:45;4.13;;;2.30;;
54269;SDS011;40181;51.560;13.000;2022-07-18T07:08:14;3.67;;;2.35;;
54269;SDS011;40181;51.560;13.000;2022-07-18T07:10:42;3.35;;;1.77;;
54269;SDS011;40181;51.560;13.000;2022-07-18T07:13:10;3.83;;;2.33;;
54269;SDS011;40181;51.560;13.000;2022-07-18T07:15:38;3.22;;;1.92;;
54269;SDS011;40181;51.560;13.000;2022-07-18T07:18:10;2.33;;;1.60;;
54269;SDS011;40181;51.560;13.000;2022-07-18T07:23:06;6.10;;;2.25;;
54269;SDS011;40181;51.560;13.000;2022-07-18T07:25:35;3.47;;;2.10;;
54269;SDS011;40181;51.560;13.000;2022-07-18T07:28:06;3.95;;;2.35;;
54269;SDS011;40181;51.560;13.000;2022-07-18T07:30:34;3.40;;;1.58;;
54269;SDS011;40181;51.560;13.000;2022-07-18T07:33:03;4.03;;;1.75;;
54269;SDS011;40181;51.560;13.000;2022-07-18T07:35:33;2.72;;;1.83;;
54269;SDS011;40181;51.560;13.000;2022-07-18T07:40:29;3.70;;;1.50;;
54269;SDS011;40181;51.560;13.000;2022-07-18T07:43:05;3.78;;;1.15;;
54269;SDS011;40181;51.560;13.000;2022-07-18T07:45:34;3.60;;;1.40;;
54269;SDS011;40181;51.560;13.000;2022-07-18T07:48:03;4.18;;;1.52;;
54269;SDS011;40181;51.560;13.000;2022-07-18T07:50:34;2.88;;;1.63;;
54269;SDS011;40181;51.560;13.000;2022-07-18T07:53:03;4.45;;;1.55;;
54269;SDS011;40181;51.560;13.000;2022-07-18T07:55:31;2.85;;;1.70;;
54269;SDS011;40181;51.560;13.000;2022-07-18T07:57:59;1.63;;;1.38;;
54269;SDS011;40181;51.560;13.000;2022-07-18T08:00:30;8.50;;;1.73;;
54269;SDS011;40181;51.560;13.000;2022-07-18T08:02:59;1.48;;;1.00;;
54269;SDS011;40181;51.560;13.000;2022-07-18T08:05:29;3.60;;;1.30;;
54269;SDS011;40181;51.560;13.000;2022-07-18T08:08:01;3.40;;;1.10;;
54269;SDS011;40181;51.560;13.000;2022-07-18T08:10:30;3.17;;;1.48;;
54269;SDS011;40181;51.560;13.000;2022-07-18T08:12:59;2.00;;;1.30;;
54269;SDS011;40181;51.560;13.000;2022-07-18T08:15:27;2.88;;;0.90;;
54269;SDS011;40181;51.560;13.000;2022-07-18T08:17:56;9.25;;;1.50;;
54269;SDS011;40181;51.560;13.000;2022-07-18T08:20:24;3.40;;;0.82;;
54269;SDS011;40181;51.560;13.000;2022-07-18T08:22:57;1.67;;;0.90;;
54269;SDS011;40181;51.560;13.000;2022-07-18T08:25:30;3.05;;;1.08;;
54269;SDS011;40181;51.560;13.000;2022-07-18T08:27:59;1.98;;;1.48;;
54269;SDS011;40181;51.560;13.000;2022-07-18T08:30:29;1.80;;;1.02;;
54269;SDS011;40181;51.560;13.000;2022-07-18T08:32:58;1.67;;;1.05;;
54269;SDS011;40181;51.560;13.000;2022-07-18T08:35:26;3.35;;;1.25;;
54269;SDS011;40181;51.560;13.000;2022-07-18T08:37:56;7.30;;;2.05;;
54269;SDS011;40181;51.560;13.000;2022-07-18T08:40:25;5.50;;;1.20;;
54269;SDS011;40181;51.560;13.000;2022-07-18T08:42:56;2.90;;;1.15;;
54269;SDS011;40181;51.560;13.000;2022-07-18T08:45:25;2.28;;;1.17;;
54269;SDS011;40181;51.560;13.000;2022-07-18T08:47:53;1.75;;;0.75;;
54269;SDS011;40181;51.560;13.000;2022-07-18T08:50:22;3.80;;;0.63;;
54269;SDS011;40181;51.560;13.000;2022-07-18T08:52:51;3.20;;;0.95;;
54269;SDS011;40181;51.560;13.000;2022-07-18T08:55:20;0.85;;;0.73;;
54269;SDS011;40181;51.560;13.000;2022-07-18T08:57:48;1.75;;;0.93;;
54269;SDS011;40181;51.560;13.000;2022-07-18T09:00:20;0.63;;;0.50;;
54269;SDS011;40181;51.560;13.000;2022-07-18T09:02:55;1.30;;;0.70;;
54269;SDS011;40181;51.560;13.000;2022-07-18T09:05:24;2.17;;;0.70;;
54269;SDS011;40181;51.560;13.000;2022-07-18T09:07:53;0.90;;;0.60;;
54269;SDS011;40181;51.560;13.000;2022-07-18T09:13:21;4.60;;;1.00;;
54269;SDS011;40181;51.560;13.000;2022-07-18T09:16:00;0.82;;;0.60;;
54269;SDS011;40181;51.560;13.000;2022-07-18T09:18:29;3.58;;;0.73;;
54269;SDS011;40181;51.560;13.000;2022-07-18T09:21:00;2.42;;;1.00;;
54269;SDS011;40181;51.560;13.000;2022-07-18T09:23:30;1.43;;;0.97;;
54269;SDS011;40181;51.560;13.000;2022-07-18T09:26:00;3.88;;;0.90;;
54269;SDS011;40181;51.560;13.000;2022-07-18T09:28:28;1.20;;;0.73;;
54269;SDS011;40181;51.560;13.000;2022-07-18T09:31:06;3.13;;;1.17;;
54269;SDS011;40181;51.560;13.000;2022-07-18T09:33:50;1.08;;;0.73;;
54269;SDS011;40181;51.560;13.000;2022-07-18T09:36:19;6.07;;;0.88;;
54269;SDS011;40181;51.560;13.000;2022-07-18T09:38:48;1.75;;;1.00;;
54269;SDS011;40181;51.560;13.000;2022-07-18T09:41:16;1.85;;;0.93;;
54269;SDS011;40181;51.560;13.000;2022-07-18T09:43:50;1.48;;;1.13;;
54269;SDS011;40181;51.560;13.000;2022-07-18T09:46:21;2.30;;;1.02;;
54269;SDS011;40181;51.560;13.000;2022-07-18T09:51:36;5.07;;;1.65;;
54269;SDS011;40181;51.560;13.000;2022-07-18T09:54:04;2.03;;;1.63;;
54269;SDS011;40181;51.560;13.000;2022-07-18T09:56:33;2.40;;;1.52;;
54269;SDS011;40181;51.560;13.000;2022-07-18T09:59:04;3.05;;;1.25;;
54269;SDS011;40181;51.560;13.000;2022-07-18T10:01:37;2.67;;;1.48;;
54269;SDS011;40181;51.560;13.000;2022-07-18T10:04:05;4.20;;;0.90;;
54269;SDS011;40181;51.560;13.000;2022-07-18T10:06:33;3.00;;;1.55;;
54269;SDS011;40181;51.560;13.000;2022-07-18T10:09:03;3.70;;;1.95;;
54269;SDS011;40181;51.560;13.000;2022-07-18T10:11:31;2.58;;;1.73;;
54269;SDS011;40181;51.560;13.000;2022-07-18T10:14:00;2.08;;;1.20;;
54269;SDS011;40181;51.560;13.000;2022-07-18T10:16:28;2.40;;;1.40;;
54269;SDS011;40181;51.560;13.000;2022-07-18T10:18:59;3.75;;;1.75;;
54269;SDS011;40181;51.560;13.000;2022-07-18T10:21:27;2.15;;;1.00;;
54269;SDS011;40181;51.560;13.000;2022-07-18T10:23:57;2.58;;;1.23;;
54269;SDS011;40181;51.560;13.000;2022-07-18T10:26:28;1.95;;;1.02;;
54269;SDS011;40181;51.560;13.000;2022-07-18T10:29:11;3.20;;;1.13;;
54269;SDS011;40181;51.560;13.000;2022-07-18T10:34:31;2.47;;;1.30;;
54269;SDS011;40181;51.560;13.000;2022-07-18T10:37:07;1.55;;;1.00;;
54269;SDS011;40181;51.560;13.000;2022-07-18T10:39:37;1.17;;;0.90;;
54269;SDS011;40181;51.560;13.000;2022-07-18T10:42:18;2.05;;;1.10;;
54269;SDS011;40181;51.560;13.000;2022-07-18T10:44:49;2.47;;;1.10;;
54269;SDS011;40181;51.560;13.000;2022-07-18T10:47:18;1.67;;;1.10;;
54269;SDS011;40181;51.560;13.000;2022-07-18T10:55:26;1.92;;;1.02;;
54269;SDS011;40181;51.560;13.000;2022-07-18T11:00:48;2.40;;;1.00;;
54269;SDS011;40181;51.560;13.000;2022-07-18T11:03:18;2.05;;;1.15;;
54269;SDS011;40181;51.560;13.000;2022-07-18T11:05:56;1.63;;;0.88;;
54269;SDS011;40181;51.560;13.000;2022-07-18T11:08:25;1.85;;;1.23;;
54269;SDS011;40181;51.560;13.000;2022-07-18T11:11:03;1.08;;;0.90;;
54269;SDS011;40181;51.560;13.000;2022-07-18T11:13:42;1.40;;;0.85;;
54269;SDS011;40181;51.560;13.000;2022-07-18T11:16:15;2.80;;;1.00;;
54269;SDS011;40181;51.560;13.000;2022-07-18T11:22:00;1.27;;;0.75;;
54269;SDS011;40181;51.560;13.000;2022-07-18T11:26:56;1.10;;;0.90;;
54269;SDS011;40181;51.560;13.000;2022-07-18T11:29:24;2.70;;;0.70;;
54269;SDS011;40181;51.560;13.000;2022-07-18T11:31:53;2.10;;;0.93;;
54269;SDS011;40181;51.560;13.000;2022-07-18T11:36:52;2.63;;;1.00;;
54269;SDS011;40181;51.560;13.000;2022-07-18T11:39:31;2.38;;;1.13;;
54269;SDS011;40181;51.560;13.000;2022-07-18T11:42:01;1.45;;;1.00;;
54269;SDS011;40181;51.560;13.000;2022-07-18T11:44:29;1.85;;;0.90;;
54269;SDS011;40181;51.560;13.000;2022-07-18T11:47:00;1.83;;;1.05;;
54269;SDS011;40181;51.560;13.000;2022-07-18T11:49:30;2.28;;;0.90;;
54269;SDS011;40181;51.560;13.000;2022-07-18T11:51:58;2.08;;;0.88;;
54269;SDS011;40181;51.560;13.000;2022-07-18T11:54:27;1.63;;;0.68;;
54269;SDS011;40181;51.560;13.000;2022-07-18T11:56:58;1.40;;;0.95;;
54269;SDS011;40181;51.560;13.000;2022-07-18T11:59:34;1.33;;;0.82;;
54269;SDS011;40181;51.560;13.000;2022-07-18T12:02:03;1.85;;;0.88;;
54269;SDS011;40181;51.560;13.000;2022-07-18T12:04:32;1.98;;;0.80;;
54269;SDS011;40181;51.560;13.000;2022-07-18T12:09:45;1.65;;;0.90;;
54269;SDS011;40181;51.560;13.000;2022-07-18T12:12:17;1.67;;;0.90;;
54269;SDS011;40181;51.560;13.000;2022-07-18T12:14:57;2.45;;;1.38;;
54269;SDS011;40181;51.560;13.000;2022-07-18T12:17:27;2.72;;;0.57;;
54269;SDS011;40181;51.560;13.000;2022-07-18T12:20:08;2.67;;;1.63;;
54269;SDS011;40181;51.560;13.000;2022-07-18T12:28:28;1.52;;;0.98;;
54269;SDS011;40181;51.560;13.000;2022-07-18T12:30:57;3.03;;;1.13;;
54269;SDS011;40181;51.560;13.000;2022-07-18T12:33:25;2.42;;;1.38;;
54269;SDS011;40181;51.560;13.000;2022-07-18T12:35:54;1.48;;;0.95;;
54269;SDS011;40181;51.560;13.000;2022-07-18T12:38:24;2.55;;;0.88;;
54269;SDS011;40181;51.560;13.000;2022-07-18T12:40:52;1.50;;;0.73;;
54269;SDS011;40181;51.560;13.000;2022-07-18T12:43:25;1.33;;;1.00;;
54269;SDS011;40181;51.560;13.000;2022-07-18T12:45:56;1.48;;;0.90;;
54269;SDS011;40181;51.560;13.000;2022-07-18T12:48:26;1.77;;;1.10;;
54269;SDS011;40181;51.560;13.000;2022-07-18T12:50:55;1.00;;;0.70;;
54269;SDS011;40181;51.560;13.000;2022-07-18T12:53:25;1.35;;;0.80;;
54269;SDS011;40181;51.560;13.000;2022-07-18T12:55:54;4.30;;;0.90;;
54269;SDS011;40181;51.560;13.000;2022-07-18T12:58:23;1.00;;;0.82;;
54269;SDS011;40181;51.560;13.000;2022-07-18T13:00:54;0.70;;;0.57;;
54269;SDS011;40181;51.560;13.000;2022-07-18T13:03:23;1.52;;;1.00;;
54269;SDS011;40181;51.560;13.000;2022-07-18T13:05:51;2.15;;;1.05;;
54269;SDS011;40181;51.560;13.000;2022-07-18T13:08:19;1.55;;;0.80;;
54269;SDS011;40181;51.560;13.000;2022-07-18T13:10:48;3.00;;;0.60;;
54269;SDS011;40181;51.560;13.000;2022-07-18T13:13:16;2.42;;;0.70;;
54269;SDS011;40181;51.560;13.000;2022-07-18T13:15:44;1.10;;;0.80;;
54269;SDS011;40181;51.560;13.000;2022-07-18T13:18:15;2.55;;;0.80;;
54269;SDS011;40181;51.560;13.000;2022-07-18T13:20:43;3.88;;;0.88;;
54269;SDS011;40181;51.560;13.000;2022-07-18T13:23:12;2.95;;;1.05;;
54269;SDS011;40181;51.560;13.000;2022-07-18T13:25:40;0.82;;;0.60;;
54269;SDS011;40181;51.560;13.000;2022-07-18T13:28:09;1.65;;;0.65;;
54269;SDS011;40181;51.560;13.000;2022-07-18T13:30:37;1.23;;;0.63;;
54269;SDS011;40181;51.560;13.000;2022-07-18T13:33:05;3.03;;;0.52;;
54269;SDS011;40181;51.560;13.000;2022-07-18T13:35:36;1.77;;;0.77;;
54269;SDS011;40181;51.560;13.000;2022-07-18T13:38:04;5.93;;;1.13;;
54269;SDS011;40181;51.560;13.000;2022-07-18T13:40:33;0.85;;;0.80;;
54269;SDS011;40181;51.560;13.000;2022-07-18T13:43:01;1.58;;;0.88;;
54269;SDS011;40181;51.560;13.000;2022-07-18T13:45:29;2.70;;;1.10;;
54269;SDS011;40181;51.560;13.000;2022-07-18T13:47:57;1.83;;;1.30;;
54269;SDS011;40181;51.560;13.000;2022-07-18T13:50:26;1.42;;;0.70;;
54269;SDS011;40181;51.560;13.000;2022-07-18T13:52:57;7.60;;;0.70;;
54269;SDS011;40181;51.560;13.000;2022-07-18T13:55:25;0.47;;;0.40;;
54269;SDS011;40181;51.560;13.000;2022-07-18T13:57:53;1.02;;;0.77;;
54269;SDS011;40181;51.560;13.000;2022-07-18T14:00:21;6.95;;;1.13;;
54269;SDS011;40181;51.560;13.000;2022-07-18T14:02:49;4.63;;;0.93;;
54269;SDS011;40181;51.560;13.000;2022-07-18T14:05:18;1.70;;;0.70;;
54269;SDS011;40181;51.560;13.000;2022-07-18T14:07:46;1.05;;;0.43;;
54269;SDS011;40181;51.560;13.000;2022-07-18T14:10:17;2.90;;;1.02;;
54269;SDS011;40181;51.560;13.000;2022-07-18T14:12:45;1.10;;;0.50;;
54269;SDS011;40181;51.560;13.000;2022-07-18T14:15:14;1.17;;;0.70;;
54269;SDS011;40181;51.560;13.000;2022-07-18T14:17:43;0.68;;;0.50;;
54269;SDS011;40181;51.560;13.000;2022-07-18T14:20:11;4.50;;;0.98;;
54269;SDS011;40181;51.560;13.000;2022-07-18T14:22:41;1.77;;;1.00;;
54269;SDS011;40181;51.560;13.000;2022-07-18T14:25:12;1.98;;;0.93;;
54269;SDS011;40181;51.560;13.000;2022-07-18T14:27:44;1.63;;;1.23;;
54269;SDS011;40181;51.560;13.000;2022-07-18T14:30:14;2.92;;;1.10;;
54269;SDS011;40181;51.560;13.000;2022-07-18T14:32:44;2.17;;;0.85;;
54269;SDS011;40181;51.560;13.000;2022-07-18T14:35:13;1.33;;;0.55;;
54269;SDS011;40181;51.560;13.000;2022-07-18T14:37:41;1.38;;;0.68;;
54269;SDS011;40181;51.560;13.000;2022-07-18T14:40:10;1.40;;;0.73;;
54269;SDS011;40181;51.560;13.000;2022-07-18T14:42:38;0.77;;;0.35;;
54269;SDS011;40181;51.560;13.000;2022-07-18T14:45:10;0.55;;;0.50;;
54269;SDS011;40181;51.560;13.000;2022-07-18T14:47:38;1.13;;;0.65;;
54269;SDS011;40181;51.560;13.000;2022-07-18T14:50:08;2.25;;;0.95;;
54269;SDS011;40181;51.560;13.000;2022-07-18T14:52:37;0.50;;;0.50;;
54269;SDS011;40181;51.560;13.000;2022-07-18T14:55:06;1.70;;;0.63;;
54269;SDS011;40181;51.560;13.000;2022-07-18T14:57:36;0.70;;;0.52;;
54269;SDS011;40181;51.560;13.000;2022-07-18T15:00:05;1.30;;;0.88;;
54269;SDS011;40181;51.560;13.000;2022-07-18T15:02:38;2.83;;;1.20;;
54269;SDS011;40181;51.560;13.000;2022-07-18T15:05:07;0.95;;;0.60;;
54269;SDS011;40181;51.560;13.000;2022-07-18T15:07:36;0.70;;;0.52;;
54269;SDS011;40181;51.560;13.000;2022-07-18T15:10:05;1.52;;;0.80;;
54269;SDS011;40181;51.560;13.000;2022-07-18T15:12:34;2.60;;;0.85;;
54269;SDS011;40181;51.560;13.000;2022-07-18T15:15:03;0.63;;;0.30;;
54269;SDS011;40181;51.560;13.000;2022-07-18T15:17:32;1.25;;;0.73;;
54269;SDS011;40181;51.560;13.000;2022-07-18T15:20:03;0.85;;;0.65;;
54269;SDS011;40181;51.560;13.000;2022-07-18T15:22:33;3.55;;;0.93;;
54269;SDS011;40181;51.560;13.000;2022-07-18T15:25:02;0.73;;;0.70;;
54269;SDS011;40181;51.560;13.000;2022-07-18T15:27:30;1.52;;;0.73;;
54269;SDS011;40181;51.560;13.000;2022-07-18T15:29:58;0.80;;;0.57;;
54269;SDS011;40181;51.560;13.000;2022-07-18T15:32:27;2.13;;;0.70;;
54269;SDS011;40181;51.560;13.000;2022-07-18T15:34:55;1.40;;;0.70;;
54269;SDS011;40181;51.560;13.000;2022-07-18T15:37:26;1.20;;;0.60;;
54269;SDS011;40181;51.560;13.000;2022-07-18T15:39:54;1.23;;;0.73;;
54269;SDS011;40181;51.560;13.000;2022-07-18T15:42:22;1.70;;;1.05;;
54269;SDS011;40181;51.560;13.000;2022-07-18T15:44:50;1.52;;;0.95;;
54269;SDS011;40181;51.560;13.000;2022-07-18T15:47:18;1.33;;;0.80;;
54269;SDS011;40181;51.560;13.000;2022-07-18T15:49:47;0.57;;;0.50;;
54269;SDS011;40181;51.560;13.000;2022-07-18T15:52:15;1.88;;;0.80;;
54269;SDS011;40181;51.560;13.000;2022-07-18T15:54:45;1.67;;;1.05;;
54269;SDS011;40181;51.560;13.000;2022-07-18T15:57:14;3.72;;;0.75;;
54269;SDS011;40181;51.560;13.000;2022-07-18T15:59:42;2.60;;;1.10;;
54269;SDS011;40181;51.560;13.000;2022-07-18T16:02:10;0.68;;;0.52;;
54269;SDS011;40181;51.560;13.000;2022-07-18T16:04:38;1.38;;;0.68;;
54269;SDS011;40181;51.560;13.000;2022-07-18T16:07:07;0.82;;;0.60;;
54269;SDS011;40181;51.560;13.000;2022-07-18T16:09:35;1.23;;;0.65;;
54269;SDS011;40181;51.560;13.000;2022-07-18T16:12:06;0.40;;;0.40;;
54269;SDS011;40181;51.560;13.000;2022-07-18T16:14:34;2.47;;;0.73;;
54269;SDS011;40181;51.560;13.000;2022-07-18T16:17:03;0.85;;;0.60;;
54269;SDS011;40181;51.560;13.000;2022-07-18T16:19:31;1.10;;;0.60;;
54269;SDS011;40181;51.560;13.000;2022-07-18T16:21:59;3.22;;;0.90;;
54269;SDS011;40181;51.560;13.000;2022-07-18T16:24:28;1.48;;;0.65;;
54269;SDS011;40181;51.560;13.000;2022-07-18T16:26:56;2.08;;;0.93;;
54269;SDS011;40181;51.560;13.000;2022-07-18T16:29:27;1.92;;;0.85;;
54269;SDS011;40181;51.560;13.000;2022-07-18T16:31:56;1.00;;;0.68;;
54269;SDS011;40181;51.560;13.000;2022-07-18T16:34:24;7.03;;;1.35;;
54269;SDS011;40181;51.560;13.000;2022-07-18T16:36:52;3.25;;;0.85;;
54269;SDS011;40181;51.560;13.000;2022-07-18T16:39:21;1.55;;;0.60;;
54269;SDS011;40181;51.560;13.000;2022-07-18T16:41:50;2.30;;;0.93;;
54269;SDS011;40181;51.560;13.000;2022-07-18T16:44:18;0.88;;;0.47;;
54269;SDS011;40181;51.560;13.000;2022-07-18T16:46:53;1.70;;;0.68;;
54269;SDS011;40181;51.560;13.000;2022-07-18T16:49:21;0.82;;;0.50;;
54269;SDS011;40181;51.560;13.000;2022-07-18T16:51:50;0.75;;;0.40;;
54269;SDS011;40181;51.560;13.000;2022-07-18T16:54:19;1.27;;;0.43;;
54269;SDS011;40181;51.560;13.000;2022-07-18T16:56:47;0.77;;;0.50;;
54269;SDS011;40181;51.560;13.000;2022-07-18T16:59:17;0.77;;;0.52;;
54269;SDS011;40181;51.560;13.000;2022-07-18T17:01:46;1.70;;;0.65;;
54269;SDS011;40181;51.560;13.000;2022-07-18T17:04:18;2.25;;;0.60;;
54269;SDS011;40181;51.560;13.000;2022-07-18T17:06:46;0.63;;;0.47;;
54269;SDS011;40181;51.560;13.000;2022-07-18T17:09:15;2.38;;;0.82;;
54269;SDS011;40181;51.560;13.000;2022-07-18T17:11:43;0.73;;;0.52;;
54269;SDS011;40181;51.560;13.000;2022-07-18T17:14:12;0.88;;;0.70;;
54269;SDS011;40181;51.560;13.000;2022-07-18T17:16:42;0.98;;;0.55;;
54269;SDS011;40181;51.560;13.000;2022-07-18T17:19:10;1.45;;;0.88;;
54269;SDS011;40181;51.560;13.000;2022-07-18T17:21:42;0.25;;;0.22;;
54269;SDS011;40181;51.560;13.000;2022-07-18T17:24:11;1.15;;;0.68;;
54269;SDS011;40181;51.560;13.000;2022-07-18T17:26:39;0.80;;;0.70;;
54269;SDS011;40181;51.560;13.000;2022-07-18T17:29:08;1.08;;;0.45;;
54269;SDS011;40181;51.560;13.000;2022-07-18T17:31:37;0.98;;;0.63;;
54269;SDS011;40181;51.560;13.000;2022-07-18T17:34:06;0.90;;;0.70;;
54269;SDS011;40181;51.560;13.000;2022-07-18T17:36:34;1.40;;;0.60;;
54269;SDS011;40181;51.560;13.000;2022-07-18T17:39:06;2.92;;;0.90;;
54269;SDS011;40181;51.560;13.000;2022-07-18T17:41:35;1.00;;;0.43;;
54269;SDS011;40181;51.560;13.000;2022-07-18T17:44:06;1.92;;;0.98;;
54269;SDS011;40181;51.560;13.000;2022-07-18T17:46:35;1.17;;;0.50;;
54269;SDS011;40181;51.560;13.000;2022-07-18T17:49:05;3.50;;;0.60;;
54269;SDS011;40181;51.560;13.000;2022-07-18T17:51:34;1.42;;;0.80;;
54269;SDS011;40181;51.560;13.000;2022-07-18T17:54:02;2.45;;;0.85;;
54269;SDS011;40181;51.560;13.000;2022-07-18T17:56:33;0.75;;;0.40;;
54269;SDS011;40181;51.560;13.000;2022-07-18T17:59:02;2.08;;;0.68;;
54269;SDS011;40181;51.560;13.000;2022-07-18T18:01:31;2.78;;;0.85;;
54269;SDS011;40181;51.560;13.000;2022-07-18T18:03:59;1.23;;;0.60;;
54269;SDS011;40181;51.560;13.000;2022-07-18T18:06:27;0.93;;;0.40;;
54269;SDS011;40181;51.560;13.000;2022-07-18T18:08:56;2.17;;;0.70;;
54269;SDS011;40181;51.560;13.000;2022-07-18T18:11:25;1.63;;;0.80;;
54269;SDS011;40181;51.560;13.000;2022-07-18T18:13:56;1.45;;;0.57;;
54269;SDS011;40181;51.560;13.000;2022-07-18T18:16:25;1.15;;;0.47;;